Weather at Airbase Pantanella [CLOSED]

Public forecast

Using degrees Celsius for public forecast. Weather courtesy of forecast.io.

Closest aviation weather report (METAR) to Airbase Pantanella

Closest report is Foggia "Gino Lisa" Airport, 24.9 nm (46.0 km) NW.

2023/01/26 21:29 (retrieved 14 minutes ago)

LIBF 262129Z 32020KT 3500 DZ BKN030 06/05 Q1005

Closest aviation forecast (TAF) to Airbase Pantanella

Closest forecast is Foggia "Gino Lisa" Airport, 24.9 nm (46.0 km) NW.

2023/01/26 18:00 (retrieved 4 hours ago)

TAF LIBF 261700Z 2618/2718 34015KT 6000 SCT050 TEMPO 2618/2708 34015G28KT 3000 SHRA